sensor_id;sensor_type;location;lat;lon;timestamp;P1;durP1;ratioP1;P2;durP2;ratioP2
151;SDS011;68;48.792;9.164;2023-01-19T00:01:38;25.95;;;18.15;;
151;SDS011;68;48.792;9.164;2023-01-19T00:04:05;24.08;;;16.58;;
151;SDS011;68;48.792;9.164;2023-01-19T00:06:33;25.88;;;17.13;;
151;SDS011;68;48.792;9.164;2023-01-19T00:09:00;27.75;;;17.88;;
151;SDS011;68;48.792;9.164;2023-01-19T00:11:27;25.60;;;17.52;;
151;SDS011;68;48.792;9.164;2023-01-19T00:13:54;26.45;;;16.75;;
151;SDS011;68;48.792;9.164;2023-01-19T00:16:22;26.52;;;16.65;;
151;SDS011;68;48.792;9.164;2023-01-19T00:18:50;25.58;;;16.65;;
151;SDS011;68;48.792;9.164;2023-01-19T00:21:17;25.90;;;16.10;;
151;SDS011;68;48.792;9.164;2023-01-19T00:23:46;26.40;;;16.27;;
151;SDS011;68;48.792;9.164;2023-01-19T00:26:15;22.73;;;15.48;;
151;SDS011;68;48.792;9.164;2023-01-19T00:28:42;21.55;;;15.05;;
151;SDS011;68;48.792;9.164;2023-01-19T00:31:09;24.58;;;16.08;;
151;SDS011;68;48.792;9.164;2023-01-19T00:33:36;20.88;;;15.52;;
151;SDS011;68;48.792;9.164;2023-01-19T00:36:03;22.58;;;15.52;;
151;SDS011;68;48.792;9.164;2023-01-19T00:38:30;20.67;;;14.25;;
151;SDS011;68;48.792;9.164;2023-01-19T00:40:58;21.88;;;14.55;;
151;SDS011;68;48.792;9.164;2023-01-19T00:43:25;20.83;;;14.85;;
151;SDS011;68;48.792;9.164;2023-01-19T00:45:52;21.58;;;14.95;;
151;SDS011;68;48.792;9.164;2023-01-19T00:48:18;26.27;;;16.67;;
151;SDS011;68;48.792;9.164;2023-01-19T00:50:46;23.45;;;15.68;;
151;SDS011;68;48.792;9.164;2023-01-19T00:53:13;24.27;;;15.50;;
151;SDS011;68;48.792;9.164;2023-01-19T00:55:40;25.00;;;16.25;;
151;SDS011;68;48.792;9.164;2023-01-19T00:58:08;22.63;;;16.05;;
151;SDS011;68;48.792;9.164;2023-01-19T01:00:34;25.17;;;17.10;;
151;SDS011;68;48.792;9.164;2023-01-19T01:03:01;26.15;;;16.92;;
151;SDS011;68;48.792;9.164;2023-01-19T01:05:28;23.60;;;16.38;;
151;SDS011;68;48.792;9.164;2023-01-19T01:07:55;23.58;;;16.15;;
151;SDS011;68;48.792;9.164;2023-01-19T01:10:23;24.55;;;16.60;;
151;SDS011;68;48.792;9.164;2023-01-19T01:12:51;26.17;;;16.40;;
151;SDS011;68;48.792;9.164;2023-01-19T01:15:20;23.63;;;15.82;;
151;SDS011;68;48.792;9.164;2023-01-19T01:17:46;28.40;;;16.50;;
151;SDS011;68;48.792;9.164;2023-01-19T01:20:14;25.42;;;17.15;;
151;SDS011;68;48.792;9.164;2023-01-19T01:22:42;25.58;;;16.73;;
151;SDS011;68;48.792;9.164;2023-01-19T01:25:11;30.60;;;17.27;;
151;SDS011;68;48.792;9.164;2023-01-19T01:27:38;24.95;;;16.50;;
151;SDS011;68;48.792;9.164;2023-01-19T01:30:06;26.48;;;16.40;;
151;SDS011;68;48.792;9.164;2023-01-19T01:32:35;23.17;;;16.80;;
151;SDS011;68;48.792;9.164;2023-01-19T01:35:02;24.80;;;17.13;;
151;SDS011;68;48.792;9.164;2023-01-19T01:37:30;25.02;;;16.45;;
151;SDS011;68;48.792;9.164;2023-01-19T01:39:57;22.77;;;15.30;;
151;SDS011;68;48.792;9.164;2023-01-19T01:42:25;22.58;;;16.52;;
151;SDS011;68;48.792;9.164;2023-01-19T01:44:54;25.27;;;16.40;;
151;SDS011;68;48.792;9.164;2023-01-19T01:47:24;24.25;;;16.15;;
151;SDS011;68;48.792;9.164;2023-01-19T01:49:58;27.33;;;16.15;;
151;SDS011;68;48.792;9.164;2023-01-19T01:52:30;26.02;;;16.20;;
151;SDS011;68;48.792;9.164;2023-01-19T01:54:59;22.50;;;15.40;;
151;SDS011;68;48.792;9.164;2023-01-19T01:57:30;24.98;;;16.08;;
151;SDS011;68;48.792;9.164;2023-01-19T01:59:59;25.60;;;16.27;;
151;SDS011;68;48.792;9.164;2023-01-19T02:02:27;24.77;;;16.02;;
151;SDS011;68;48.792;9.164;2023-01-19T02:05:15;20.83;;;15.23;;
151;SDS011;68;48.792;9.164;2023-01-19T02:07:46;21.88;;;15.85;;
151;SDS011;68;48.792;9.164;2023-01-19T02:10:34;23.90;;;15.73;;
151;SDS011;68;48.792;9.164;2023-01-19T02:13:19;23.52;;;15.60;;
151;SDS011;68;48.792;9.164;2023-01-19T02:15:47;23.65;;;15.90;;
151;SDS011;68;48.792;9.164;2023-01-19T02:18:15;24.85;;;14.95;;
151;SDS011;68;48.792;9.164;2023-01-19T02:20:46;24.63;;;15.73;;
151;SDS011;68;48.792;9.164;2023-01-19T02:23:26;24.48;;;16.05;;
151;SDS011;68;48.792;9.164;2023-01-19T02:26:07;21.83;;;15.00;;
151;SDS011;68;48.792;9.164;2023-01-19T02:28:36;23.00;;;15.63;;
151;SDS011;68;48.792;9.164;2023-01-19T02:31:06;25.15;;;16.30;;
151;SDS011;68;48.792;9.164;2023-01-19T02:33:33;25.13;;;15.65;;
151;SDS011;68;48.792;9.164;2023-01-19T02:36:00;29.55;;;16.15;;
151;SDS011;68;48.792;9.164;2023-01-19T02:38:29;25.20;;;16.10;;
151;SDS011;68;48.792;9.164;2023-01-19T02:40:57;30.27;;;15.30;;
151;SDS011;68;48.792;9.164;2023-01-19T02:43:26;26.42;;;16.35;;
151;SDS011;68;48.792;9.164;2023-01-19T02:45:53;23.13;;;15.50;;
151;SDS011;68;48.792;9.164;2023-01-19T02:48:21;25.38;;;15.70;;
151;SDS011;68;48.792;9.164;2023-01-19T02:50:48;24.02;;;15.95;;
151;SDS011;68;48.792;9.164;2023-01-19T02:53:22;25.02;;;16.02;;
151;SDS011;68;48.792;9.164;2023-01-19T02:56:05;25.63;;;15.95;;
151;SDS011;68;48.792;9.164;2023-01-19T02:58:48;22.50;;;15.35;;
151;SDS011;68;48.792;9.164;2023-01-19T03:01:22;24.67;;;15.95;;
151;SDS011;68;48.792;9.164;2023-01-19T03:03:57;24.23;;;14.23;;
151;SDS011;68;48.792;9.164;2023-01-19T03:06:35;27.13;;;15.60;;
151;SDS011;68;48.792;9.164;2023-01-19T03:09:11;22.95;;;15.20;;
151;SDS011;68;48.792;9.164;2023-01-19T03:11:49;24.27;;;15.38;;
151;SDS011;68;48.792;9.164;2023-01-19T03:14:20;23.42;;;15.00;;
151;SDS011;68;48.792;9.164;2023-01-19T03:16:50;23.63;;;15.95;;
151;SDS011;68;48.792;9.164;2023-01-19T03:19:22;22.20;;;14.38;;
151;SDS011;68;48.792;9.164;2023-01-19T03:21:53;21.98;;;15.45;;
151;SDS011;68;48.792;9.164;2023-01-19T03:24:24;25.70;;;14.60;;
151;SDS011;68;48.792;9.164;2023-01-19T03:26:57;20.38;;;14.20;;
151;SDS011;68;48.792;9.164;2023-01-19T03:29:27;19.40;;;14.70;;
151;SDS011;68;48.792;9.164;2023-01-19T03:31:59;21.15;;;13.20;;
151;SDS011;68;48.792;9.164;2023-01-19T03:34:28;26.67;;;14.48;;
151;SDS011;68;48.792;9.164;2023-01-19T03:36:57;19.15;;;12.65;;
151;SDS011;68;48.792;9.164;2023-01-19T03:39:29;20.98;;;13.32;;
151;SDS011;68;48.792;9.164;2023-01-19T03:41:57;22.88;;;13.85;;
151;SDS011;68;48.792;9.164;2023-01-19T03:44:27;19.70;;;13.27;;
151;SDS011;68;48.792;9.164;2023-01-19T03:46:55;18.95;;;13.10;;
151;SDS011;68;48.792;9.164;2023-01-19T03:49:24;20.15;;;13.93;;
151;SDS011;68;48.792;9.164;2023-01-19T03:51:53;19.80;;;13.05;;
151;SDS011;68;48.792;9.164;2023-01-19T03:54:21;18.92;;;12.82;;
151;SDS011;68;48.792;9.164;2023-01-19T03:56:49;19.60;;;13.30;;
151;SDS011;68;48.792;9.164;2023-01-19T03:59:16;21.88;;;13.40;;
151;SDS011;68;48.792;9.164;2023-01-19T04:01:44;18.52;;;13.05;;
151;SDS011;68;48.792;9.164;2023-01-19T04:04:10;25.73;;;14.27;;
151;SDS011;68;48.792;9.164;2023-01-19T04:06:39;20.15;;;13.55;;
151;SDS011;68;48.792;9.164;2023-01-19T04:09:06;22.23;;;13.43;;
151;SDS011;68;48.792;9.164;2023-01-19T04:11:33;17.75;;;12.93;;
151;SDS011;68;48.792;9.164;2023-01-19T04:14:01;18.92;;;12.77;;
151;SDS011;68;48.792;9.164;2023-01-19T04:16:28;19.02;;;13.05;;
151;SDS011;68;48.792;9.164;2023-01-19T04:18:55;18.05;;;12.93;;
151;SDS011;68;48.792;9.164;2023-01-19T04:21:22;20.85;;;12.25;;
151;SDS011;68;48.792;9.164;2023-01-19T04:23:49;21.55;;;12.95;;
151;SDS011;68;48.792;9.164;2023-01-19T04:26:17;20.75;;;13.13;;
151;SDS011;68;48.792;9.164;2023-01-19T04:28:43;18.40;;;12.38;;
151;SDS011;68;48.792;9.164;2023-01-19T04:31:12;21.00;;;13.57;;
151;SDS011;68;48.792;9.164;2023-01-19T04:33:38;18.30;;;12.95;;
151;SDS011;68;48.792;9.164;2023-01-19T04:36:05;16.52;;;11.95;;
151;SDS011;68;48.792;9.164;2023-01-19T04:38:33;18.27;;;13.05;;
151;SDS011;68;48.792;9.164;2023-01-19T04:41:00;17.88;;;12.75;;
151;SDS011;68;48.792;9.164;2023-01-19T04:43:26;20.63;;;12.75;;
151;SDS011;68;48.792;9.164;2023-01-19T04:45:53;18.98;;;13.88;;
151;SDS011;68;48.792;9.164;2023-01-19T04:48:21;22.77;;;13.38;;
151;SDS011;68;48.792;9.164;2023-01-19T04:50:49;19.75;;;13.60;;
151;SDS011;68;48.792;9.164;2023-01-19T04:53:16;22.77;;;13.07;;
151;SDS011;68;48.792;9.164;2023-01-19T04:55:43;20.38;;;13.85;;
151;SDS011;68;48.792;9.164;2023-01-19T04:58:10;23.65;;;13.82;;
151;SDS011;68;48.792;9.164;2023-01-19T05:00:37;21.98;;;14.35;;
151;SDS011;68;48.792;9.164;2023-01-19T05:03:04;23.90;;;14.70;;
151;SDS011;68;48.792;9.164;2023-01-19T05:05:32;21.50;;;14.27;;
151;SDS011;68;48.792;9.164;2023-01-19T05:07:59;23.88;;;14.90;;
151;SDS011;68;48.792;9.164;2023-01-19T05:10:26;25.05;;;14.00;;
151;SDS011;68;48.792;9.164;2023-01-19T05:12:53;23.95;;;15.25;;
151;SDS011;68;48.792;9.164;2023-01-19T05:15:20;25.05;;;15.07;;
151;SDS011;68;48.792;9.164;2023-01-19T05:17:46;24.70;;;15.82;;
151;SDS011;68;48.792;9.164;2023-01-19T05:20:13;23.42;;;14.90;;
151;SDS011;68;48.792;9.164;2023-01-19T05:22:45;23.05;;;15.10;;
151;SDS011;68;48.792;9.164;2023-01-19T05:25:14;23.88;;;14.77;;
151;SDS011;68;48.792;9.164;2023-01-19T05:27:40;29.48;;;15.32;;
151;SDS011;68;48.792;9.164;2023-01-19T05:30:09;24.80;;;15.52;;
151;SDS011;68;48.792;9.164;2023-01-19T05:32:37;24.95;;;15.50;;
151;SDS011;68;48.792;9.164;2023-01-19T05:35:04;26.27;;;15.45;;
151;SDS011;68;48.792;9.164;2023-01-19T05:37:31;21.58;;;14.48;;
151;SDS011;68;48.792;9.164;2023-01-19T05:40:00;23.42;;;15.30;;
151;SDS011;68;48.792;9.164;2023-01-19T05:42:26;24.85;;;14.90;;
151;SDS011;68;48.792;9.164;2023-01-19T05:44:53;20.60;;;14.38;;
151;SDS011;68;48.792;9.164;2023-01-19T05:47:20;23.50;;;14.60;;
151;SDS011;68;48.792;9.164;2023-01-19T05:49:47;21.40;;;15.18;;
151;SDS011;68;48.792;9.164;2023-01-19T05:52:13;22.58;;;15.88;;
151;SDS011;68;48.792;9.164;2023-01-19T05:54:40;25.30;;;16.15;;
151;SDS011;68;48.792;9.164;2023-01-19T05:57:08;24.70;;;15.77;;
151;SDS011;68;48.792;9.164;2023-01-19T05:59:35;23.40;;;15.70;;
151;SDS011;68;48.792;9.164;2023-01-19T06:02:02;23.13;;;15.73;;
151;SDS011;68;48.792;9.164;2023-01-19T06:04:29;25.67;;;16.48;;
151;SDS011;68;48.792;9.164;2023-01-19T06:06:56;25.23;;;17.10;;
151;SDS011;68;48.792;9.164;2023-01-19T06:09:22;24.52;;;15.80;;
151;SDS011;68;48.792;9.164;2023-01-19T06:11:49;28.15;;;15.88;;
151;SDS011;68;48.792;9.164;2023-01-19T06:14:19;23.42;;;16.23;;
151;SDS011;68;48.792;9.164;2023-01-19T06:16:46;24.25;;;16.00;;
151;SDS011;68;48.792;9.164;2023-01-19T06:19:13;25.25;;;15.43;;
151;SDS011;68;48.792;9.164;2023-01-19T06:21:40;22.98;;;16.27;;
151;SDS011;68;48.792;9.164;2023-01-19T06:24:13;23.90;;;15.73;;
151;SDS011;68;48.792;9.164;2023-01-19T06:26:40;23.08;;;15.75;;
151;SDS011;68;48.792;9.164;2023-01-19T06:29:07;24.63;;;15.27;;
151;SDS011;68;48.792;9.164;2023-01-19T06:31:36;23.15;;;15.90;;
151;SDS011;68;48.792;9.164;2023-01-19T06:34:03;24.25;;;15.98;;
151;SDS011;68;48.792;9.164;2023-01-19T06:36:30;22.13;;;15.38;;
151;SDS011;68;48.792;9.164;2023-01-19T06:38:56;25.25;;;16.35;;
151;SDS011;68;48.792;9.164;2023-01-19T06:41:24;22.38;;;15.60;;
151;SDS011;68;48.792;9.164;2023-01-19T06:43:51;21.83;;;15.18;;
151;SDS011;68;48.792;9.164;2023-01-19T06:46:17;23.35;;;15.43;;
151;SDS011;68;48.792;9.164;2023-01-19T06:48:46;21.45;;;15.20;;
151;SDS011;68;48.792;9.164;2023-01-19T06:51:12;20.25;;;14.48;;
151;SDS011;68;48.792;9.164;2023-01-19T06:53:39;22.50;;;15.07;;
151;SDS011;68;48.792;9.164;2023-01-19T06:56:07;24.65;;;15.32;;
151;SDS011;68;48.792;9.164;2023-01-19T06:58:34;24.85;;;15.65;;
151;SDS011;68;48.792;9.164;2023-01-19T07:01:01;21.92;;;15.02;;
151;SDS011;68;48.792;9.164;2023-01-19T07:03:29;25.58;;;16.10;;
151;SDS011;68;48.792;9.164;2023-01-19T07:05:58;26.60;;;15.80;;
151;SDS011;68;48.792;9.164;2023-01-19T07:08:26;23.50;;;15.48;;
151;SDS011;68;48.792;9.164;2023-01-19T07:10:57;24.58;;;16.80;;
151;SDS011;68;48.792;9.164;2023-01-19T07:13:24;25.58;;;15.60;;
151;SDS011;68;48.792;9.164;2023-01-19T07:15:52;24.10;;;15.52;;
151;SDS011;68;48.792;9.164;2023-01-19T07:18:19;22.70;;;15.70;;
151;SDS011;68;48.792;9.164;2023-01-19T07:20:46;22.88;;;14.93;;
151;SDS011;68;48.792;9.164;2023-01-19T07:23:14;23.88;;;14.27;;
151;SDS011;68;48.792;9.164;2023-01-19T07:25:43;22.73;;;13.70;;
151;SDS011;68;48.792;9.164;2023-01-19T07:28:10;20.90;;;13.77;;
151;SDS011;68;48.792;9.164;2023-01-19T07:30:39;20.83;;;13.90;;
151;SDS011;68;48.792;9.164;2023-01-19T07:33:06;19.27;;;12.88;;
151;SDS011;68;48.792;9.164;2023-01-19T07:35:33;19.05;;;12.75;;
151;SDS011;68;48.792;9.164;2023-01-19T07:38:00;19.88;;;13.15;;
151;SDS011;68;48.792;9.164;2023-01-19T07:40:28;22.02;;;14.48;;
151;SDS011;68;48.792;9.164;2023-01-19T07:42:55;19.15;;;12.85;;
151;SDS011;68;48.792;9.164;2023-01-19T07:45:22;17.70;;;12.80;;
151;SDS011;68;48.792;9.164;2023-01-19T07:47:48;20.05;;;12.60;;
151;SDS011;68;48.792;9.164;2023-01-19T07:50:16;17.95;;;12.52;;
151;SDS011;68;48.792;9.164;2023-01-19T07:52:45;22.17;;;13.95;;
151;SDS011;68;48.792;9.164;2023-01-19T07:55:14;20.05;;;12.68;;
151;SDS011;68;48.792;9.164;2023-01-19T07:57:42;17.67;;;13.18;;
151;SDS011;68;48.792;9.164;2023-01-19T08:00:10;20.25;;;12.93;;
151;SDS011;68;48.792;9.164;2023-01-19T08:02:38;21.40;;;13.07;;
151;SDS011;68;48.792;9.164;2023-01-19T08:05:05;19.42;;;13.07;;
151;SDS011;68;48.792;9.164;2023-01-19T08:07:33;19.80;;;12.43;;
151;SDS011;68;48.792;9.164;2023-01-19T08:10:00;17.25;;;12.13;;
151;SDS011;68;48.792;9.164;2023-01-19T08:12:27;20.92;;;13.00;;
151;SDS011;68;48.792;9.164;2023-01-19T08:14:55;17.90;;;12.27;;
151;SDS011;68;48.792;9.164;2023-01-19T08:17:22;16.63;;;11.77;;
151;SDS011;68;48.792;9.164;2023-01-19T08:19:49;18.75;;;13.10;;
151;SDS011;68;48.792;9.164;2023-01-19T08:22:15;18.48;;;12.18;;
151;SDS011;68;48.792;9.164;2023-01-19T08:24:42;16.67;;;12.15;;
151;SDS011;68;48.792;9.164;2023-01-19T08:27:09;18.73;;;12.00;;
151;SDS011;68;48.792;9.164;2023-01-19T08:29:36;18.40;;;12.52;;
151;SDS011;68;48.792;9.164;2023-01-19T08:32:04;16.40;;;11.95;;
151;SDS011;68;48.792;9.164;2023-01-19T08:34:31;17.85;;;12.00;;
151;SDS011;68;48.792;9.164;2023-01-19T08:36:58;20.80;;;11.93;;
151;SDS011;68;48.792;9.164;2023-01-19T08:39:25;14.98;;;10.80;;
151;SDS011;68;48.792;9.164;2023-01-19T08:41:51;17.35;;;11.70;;
151;SDS011;68;48.792;9.164;2023-01-19T08:44:18;15.70;;;11.02;;
151;SDS011;68;48.792;9.164;2023-01-19T08:46:45;19.25;;;10.82;;
151;SDS011;68;48.792;9.164;2023-01-19T08:49:13;20.58;;;11.70;;
151;SDS011;68;48.792;9.164;2023-01-19T08:51:41;15.55;;;11.57;;
151;SDS011;68;48.792;9.164;2023-01-19T08:54:09;18.35;;;11.18;;
151;SDS011;68;48.792;9.164;2023-01-19T08:56:36;17.38;;;11.15;;
151;SDS011;68;48.792;9.164;2023-01-19T08:59:03;19.80;;;10.80;;
151;SDS011;68;48.792;9.164;2023-01-19T09:01:30;16.10;;;10.20;;
151;SDS011;68;48.792;9.164;2023-01-19T09:03:56;15.50;;;10.75;;
151;SDS011;68;48.792;9.164;2023-01-19T09:06:24;21.05;;;10.60;;
151;SDS011;68;48.792;9.164;2023-01-19T09:08:52;18.58;;;11.13;;
151;SDS011;68;48.792;9.164;2023-01-19T09:11:19;14.98;;;10.27;;
151;SDS011;68;48.792;9.164;2023-01-19T09:13:46;16.02;;;9.88;;
151;SDS011;68;48.792;9.164;2023-01-19T09:16:12;14.52;;;10.10;;
151;SDS011;68;48.792;9.164;2023-01-19T09:18:39;16.08;;;10.23;;
151;SDS011;68;48.792;9.164;2023-01-19T09:21:06;17.00;;;10.65;;
151;SDS011;68;48.792;9.164;2023-01-19T09:23:35;15.48;;;10.15;;
151;SDS011;68;48.792;9.164;2023-01-19T09:26:03;13.95;;;10.25;;
151;SDS011;68;48.792;9.164;2023-01-19T09:28:31;14.82;;;10.27;;
151;SDS011;68;48.792;9.164;2023-01-19T09:30:57;16.50;;;10.40;;
151;SDS011;68;48.792;9.164;2023-01-19T09:33:24;14.13;;;10.13;;
151;SDS011;68;48.792;9.164;2023-01-19T09:35:51;12.40;;;9.65;;
151;SDS011;68;48.792;9.164;2023-01-19T09:38:18;15.40;;;10.57;;
151;SDS011;68;48.792;9.164;2023-01-19T09:40:48;12.65;;;9.65;;
151;SDS011;68;48.792;9.164;2023-01-19T09:43:19;16.08;;;9.98;;
151;SDS011;68;48.792;9.164;2023-01-19T09:45:57;12.95;;;8.65;;
151;SDS011;68;48.792;9.164;2023-01-19T09:48:28;14.40;;;10.15;;
151;SDS011;68;48.792;9.164;2023-01-19T09:51:09;13.50;;;9.85;;
151;SDS011;68;48.792;9.164;2023-01-19T09:53:42;13.75;;;10.38;;
151;SDS011;68;48.792;9.164;2023-01-19T09:56:26;15.98;;;10.60;;
151;SDS011;68;48.792;9.164;2023-01-19T09:58:57;14.77;;;9.43;;
151;SDS011;68;48.792;9.164;2023-01-19T10:04:29;15.88;;;10.25;;
151;SDS011;68;48.792;9.164;2023-01-19T10:07:02;14.75;;;10.10;;
151;SDS011;68;48.792;9.164;2023-01-19T10:09:37;15.90;;;10.13;;
151;SDS011;68;48.792;9.164;2023-01-19T10:12:25;15.75;;;10.27;;
151;SDS011;68;48.792;9.164;2023-01-19T10:15:02;13.60;;;9.13;;
151;SDS011;68;48.792;9.164;2023-01-19T10:17:42;12.57;;;9.10;;
151;SDS011;68;48.792;9.164;2023-01-19T10:20:18;14.00;;;9.20;;
151;SDS011;68;48.792;9.164;2023-01-19T10:22:51;14.98;;;9.35;;
151;SDS011;68;48.792;9.164;2023-01-19T10:25:19;15.30;;;10.30;;
151;SDS011;68;48.792;9.164;2023-01-19T10:27:49;18.90;;;10.02;;
151;SDS011;68;48.792;9.164;2023-01-19T10:30:18;15.82;;;10.95;;
151;SDS011;68;48.792;9.164;2023-01-19T10:32:47;14.07;;;10.30;;
151;SDS011;68;48.792;9.164;2023-01-19T10:35:16;12.48;;;9.10;;
151;SDS011;68;48.792;9.164;2023-01-19T10:37:48;13.27;;;9.32;;
151;SDS011;68;48.792;9.164;2023-01-19T10:40:17;15.70;;;10.45;;
151;SDS011;68;48.792;9.164;2023-01-19T10:42:52;15.20;;;10.18;;
151;SDS011;68;48.792;9.164;2023-01-19T10:45:20;17.23;;;9.20;;
151;SDS011;68;48.792;9.164;2023-01-19T10:47:49;13.02;;;9.05;;
151;SDS011;68;48.792;9.164;2023-01-19T10:50:24;14.75;;;8.80;;
151;SDS011;68;48.792;9.164;2023-01-19T10:52:53;15.23;;;9.40;;
151;SDS011;68;48.792;9.164;2023-01-19T10:55:22;13.77;;;9.25;;
151;SDS011;68;48.792;9.164;2023-01-19T10:57:53;12.40;;;8.70;;
151;SDS011;68;48.792;9.164;2023-01-19T11:00:28;15.07;;;9.30;;
151;SDS011;68;48.792;9.164;2023-01-19T11:02:56;12.80;;;8.00;;
151;SDS011;68;48.792;9.164;2023-01-19T11:05:24;14.02;;;8.57;;
151;SDS011;68;48.792;9.164;2023-01-19T11:07:52;17.02;;;9.43;;
151;SDS011;68;48.792;9.164;2023-01-19T11:10:20;12.52;;;9.20;;
151;SDS011;68;48.792;9.164;2023-01-19T11:13:00;17.13;;;8.75;;
151;SDS011;68;48.792;9.164;2023-01-19T11:15:32;13.15;;;8.57;;
151;SDS011;68;48.792;9.164;2023-01-19T11:18:01;11.30;;;8.65;;
151;SDS011;68;48.792;9.164;2023-01-19T11:20:32;11.80;;;8.68;;
151;SDS011;68;48.792;9.164;2023-01-19T11:23:16;12.48;;;8.70;;
151;SDS011;68;48.792;9.164;2023-01-19T11:25:46;12.93;;;8.48;;
151;SDS011;68;48.792;9.164;2023-01-19T11:28:17;13.48;;;9.00;;
151;SDS011;68;48.792;9.164;2023-01-19T11:30:53;12.23;;;8.75;;
151;SDS011;68;48.792;9.164;2023-01-19T11:33:22;12.82;;;8.70;;
151;SDS011;68;48.792;9.164;2023-01-19T11:35:50;10.90;;;7.95;;
151;SDS011;68;48.792;9.164;2023-01-19T11:38:28;12.35;;;8.93;;
151;SDS011;68;48.792;9.164;2023-01-19T11:40:55;12.43;;;8.45;;
151;SDS011;68;48.792;9.164;2023-01-19T11:43:26;16.75;;;9.10;;
151;SDS011;68;48.792;9.164;2023-01-19T11:45:54;13.90;;;9.15;;
151;SDS011;68;48.792;9.164;2023-01-19T11:48:24;15.27;;;9.20;;
151;SDS011;68;48.792;9.164;2023-01-19T11:50:56;12.75;;;9.02;;
151;SDS011;68;48.792;9.164;2023-01-19T11:53:29;14.30;;;9.60;;
151;SDS011;68;48.792;9.164;2023-01-19T11:56:00;11.38;;;8.25;;
151;SDS011;68;48.792;9.164;2023-01-19T11:58:30;11.48;;;8.55;;
151;SDS011;68;48.792;9.164;2023-01-19T12:01:02;12.25;;;7.85;;
151;SDS011;68;48.792;9.164;2023-01-19T12:03:33;13.10;;;7.57;;
151;SDS011;68;48.792;9.164;2023-01-19T12:06:06;12.50;;;8.57;;
151;SDS011;68;48.792;9.164;2023-01-19T12:08:36;12.85;;;8.38;;
151;SDS011;68;48.792;9.164;2023-01-19T12:11:06;12.57;;;8.10;;
151;SDS011;68;48.792;9.164;2023-01-19T12:13:38;10.43;;;7.60;;
151;SDS011;68;48.792;9.164;2023-01-19T12:16:09;12.18;;;7.57;;
151;SDS011;68;48.792;9.164;2023-01-19T12:18:43;10.75;;;7.60;;
151;SDS011;68;48.792;9.164;2023-01-19T12:21:13;14.38;;;8.02;;
151;SDS011;68;48.792;9.164;2023-01-19T12:23:45;11.88;;;8.20;;
151;SDS011;68;48.792;9.164;2023-01-19T12:26:27;11.27;;;7.53;;
151;SDS011;68;48.792;9.164;2023-01-19T12:29:02;11.85;;;7.90;;
151;SDS011;68;48.792;9.164;2023-01-19T12:31:32;11.35;;;7.20;;
151;SDS011;68;48.792;9.164;2023-01-19T12:37:04;10.65;;;7.60;;
151;SDS011;68;48.792;9.164;2023-01-19T12:39:32;11.85;;;7.05;;
151;SDS011;68;48.792;9.164;2023-01-19T12:42:09;10.82;;;7.80;;
151;SDS011;68;48.792;9.164;2023-01-19T12:44:40;10.50;;;8.07;;
151;SDS011;68;48.792;9.164;2023-01-19T12:47:18;7.97;;;5.70;;
151;SDS011;68;48.792;9.164;2023-01-19T12:49:48;10.23;;;7.45;;
151;SDS011;68;48.792;9.164;2023-01-19T12:52:19;12.50;;;8.20;;
151;SDS011;68;48.792;9.164;2023-01-19T12:54:56;11.98;;;7.82;;
151;SDS011;68;48.792;9.164;2023-01-19T12:57:28;10.85;;;7.90;;
151;SDS011;68;48.792;9.164;2023-01-19T12:59:59;10.70;;;6.97;;
151;SDS011;68;48.792;9.164;2023-01-19T13:02:35;13.00;;;8.40;;
151;SDS011;68;48.792;9.164;2023-01-19T13:05:15;10.73;;;7.40;;
151;SDS011;68;48.792;9.164;2023-01-19T13:10:54;9.70;;;7.22;;
151;SDS011;68;48.792;9.164;2023-01-19T13:13:37;11.32;;;7.40;;
151;SDS011;68;48.792;9.164;2023-01-19T13:19:13;10.35;;;7.82;;
151;SDS011;68;48.792;9.164;2023-01-19T13:21:43;11.05;;;7.85;;
151;SDS011;68;48.792;9.164;2023-01-19T13:24:12;17.23;;;9.75;;
151;SDS011;68;48.792;9.164;2023-01-19T13:26:41;14.52;;;10.10;;
151;SDS011;68;48.792;9.164;2023-01-19T13:29:23;16.20;;;10.32;;
151;SDS011;68;48.792;9.164;2023-01-19T13:31:55;17.90;;;11.13;;
151;SDS011;68;48.792;9.164;2023-01-19T13:34:29;15.30;;;11.15;;
151;SDS011;68;48.792;9.164;2023-01-19T13:36:58;16.35;;;11.40;;
151;SDS011;68;48.792;9.164;2023-01-19T13:39:26;14.27;;;11.20;;
151;SDS011;68;48.792;9.164;2023-01-19T13:41:56;16.42;;;11.07;;
151;SDS011;68;48.792;9.164;2023-01-19T13:44:27;19.60;;;11.57;;
151;SDS011;68;48.792;9.164;2023-01-19T13:46:55;15.50;;;10.52;;
151;SDS011;68;48.792;9.164;2023-01-19T13:49:25;16.33;;;11.15;;
151;SDS011;68;48.792;9.164;2023-01-19T13:52:11;17.98;;;11.68;;
151;SDS011;68;48.792;9.164;2023-01-19T13:54:47;15.88;;;11.32;;
151;SDS011;68;48.792;9.164;2023-01-19T13:57:24;17.92;;;11.63;;
151;SDS011;68;48.792;9.164;2023-01-19T14:00:06;21.38;;;10.82;;
151;SDS011;68;48.792;9.164;2023-01-19T14:02:41;16.60;;;11.55;;
151;SDS011;68;48.792;9.164;2023-01-19T14:05:20;16.83;;;10.88;;
151;SDS011;68;48.792;9.164;2023-01-19T14:07:53;15.02;;;11.02;;
151;SDS011;68;48.792;9.164;2023-01-19T14:10:25;15.77;;;11.27;;
151;SDS011;68;48.792;9.164;2023-01-19T14:12:56;15.13;;;10.98;;
151;SDS011;68;48.792;9.164;2023-01-19T14:15:24;16.17;;;10.90;;
151;SDS011;68;48.792;9.164;2023-01-19T14:18:06;15.25;;;10.63;;
151;SDS011;68;48.792;9.164;2023-01-19T14:20:50;14.65;;;11.32;;
151;SDS011;68;48.792;9.164;2023-01-19T14:23:36;16.00;;;10.27;;
151;SDS011;68;48.792;9.164;2023-01-19T14:26:04;12.85;;;10.48;;
151;SDS011;68;48.792;9.164;2023-01-19T14:28:32;12.43;;;10.23;;
151;SDS011;68;48.792;9.164;2023-01-19T14:31:16;15.77;;;11.40;;
151;SDS011;68;48.792;9.164;2023-01-19T14:33:46;16.50;;;11.70;;
151;SDS011;68;48.792;9.164;2023-01-19T14:39:00;14.38;;;10.95;;
151;SDS011;68;48.792;9.164;2023-01-19T14:41:32;16.08;;;10.52;;
151;SDS011;68;48.792;9.164;2023-01-19T14:44:06;17.50;;;10.93;;
151;SDS011;68;48.792;9.164;2023-01-19T14:46:34;18.55;;;11.52;;
151;SDS011;68;48.792;9.164;2023-01-19T14:49:01;22.05;;;11.75;;
151;SDS011;68;48.792;9.164;2023-01-19T14:51:29;17.40;;;12.00;;
151;SDS011;68;48.792;9.164;2023-01-19T14:53:58;17.10;;;11.35;;
151;SDS011;68;48.792;9.164;2023-01-19T14:56:27;17.08;;;11.48;;
151;SDS011;68;48.792;9.164;2023-01-19T14:58:56;16.10;;;11.57;;
151;SDS011;68;48.792;9.164;2023-01-19T15:01:24;15.65;;;10.77;;
151;SDS011;68;48.792;9.164;2023-01-19T15:03:53;14.88;;;11.27;;
151;SDS011;68;48.792;9.164;2023-01-19T15:06:21;15.43;;;10.15;;
151;SDS011;68;48.792;9.164;2023-01-19T15:08:49;17.05;;;11.10;;
151;SDS011;68;48.792;9.164;2023-01-19T15:11:20;16.50;;;11.65;;
151;SDS011;68;48.792;9.164;2023-01-19T15:13:49;17.42;;;11.70;;
151;SDS011;68;48.792;9.164;2023-01-19T15:16:16;17.13;;;11.73;;
151;SDS011;68;48.792;9.164;2023-01-19T15:18:43;16.45;;;11.82;;
151;SDS011;68;48.792;9.164;2023-01-19T15:21:11;20.35;;;12.60;;
151;SDS011;68;48.792;9.164;2023-01-19T15:23:40;19.75;;;11.98;;
151;SDS011;68;48.792;9.164;2023-01-19T15:26:09;17.48;;;12.35;;
151;SDS011;68;48.792;9.164;2023-01-19T15:28:42;21.02;;;11.00;;
151;SDS011;68;48.792;9.164;2023-01-19T15:31:09;17.63;;;11.50;;
151;SDS011;68;48.792;9.164;2023-01-19T15:33:38;14.50;;;10.93;;
151;SDS011;68;48.792;9.164;2023-01-19T15:36:05;19.27;;;11.20;;
151;SDS011;68;48.792;9.164;2023-01-19T15:38:34;16.52;;;10.70;;
151;SDS011;68;48.792;9.164;2023-01-19T15:41:01;15.10;;;10.13;;
151;SDS011;68;48.792;9.164;2023-01-19T15:43:28;13.98;;;9.65;;
151;SDS011;68;48.792;9.164;2023-01-19T15:45:58;14.07;;;10.80;;
151;SDS011;68;48.792;9.164;2023-01-19T15:48:26;14.10;;;10.45;;
151;SDS011;68;48.792;9.164;2023-01-19T15:50:53;14.93;;;10.55;;
151;SDS011;68;48.792;9.164;2023-01-19T15:53:20;14.02;;;10.70;;
151;SDS011;68;48.792;9.164;2023-01-19T15:55:48;16.17;;;10.57;;
151;SDS011;68;48.792;9.164;2023-01-19T15:58:16;15.10;;;10.00;;
151;SDS011;68;48.792;9.164;2023-01-19T16:00:44;23.77;;;11.23;;
151;SDS011;68;48.792;9.164;2023-01-19T16:03:18;16.50;;;10.48;;